My Meet Scores
Brooke Gutheil, Kinetic Kids LLC - MyMeetScores.com
Top100 | Top Teams | Upcoming Meets | Completed Meets | Latest | Add Scores | Help| Support | Bookmark and Share

Brooke Gutheil, Kinetic Kids LLC
Personal Bests
LevelVault BarsBeamFloorAA
39.0009.325 9.3508.95036.300
48.8508.200 8.9008.35034.250
58.6008.250 9.2758.47534.075
69.2008.800 9.1009.30036.125
AllLevels8.5508.200 8.3508.55033.650
Meet Scores
Date Meet Team Session Level Division Vault Bars Beam Floor AA
2020-02-21 Team Challenge 2020 Kinetic Kids LLC R5 6 Senior 0.000 13T 7.675 11 8.900 9 0.000 13T 16.575 13
2020-01-24 2020 Kinetic Kids Invitational Kinetic Kids LLC 7 6 All 9.200 3 8.525 2 9.100 3 9.300 4 36.125 3
2019-12-06 Rhode Island Invitational Kinetic Kids LLC SU3 6 junior 8.800 5T 8.350 2T 8.250 8 8.625 10 34.025 6
2019-11-09 2019 PHS Turkey Tumble Kinetic Kids LLC 3 6 Jr C 8.300 8T 8.800 1T 8.100 9 8.550 10 33.750 6
2019-02-01 State Level 4&5 Kinetic Kids LLC 5 5 11B 8.050 40 8.250 25T 9.000 8T 8.150 38 33.450 28
2019-01-25 Kinetic Kids Invitational 2019 Kinetic Kids LLC 2 5 Older 8.600 7 7.300 8 8.550 7 8.475 5T 32.925 7
2019-01-18 DGS Northeast Invite Kinetic Kids LLC 5A 5 Jr A 8.450 11 7.600 10T 8.850 7T 8.450 11 33.350 10
2018-11-30 Rhode Island Invitational Kinetic Kids LLC SU3 5 Junior 8.450 5 7.950 7 9.275 1 8.400 6T 34.075 3
2018-11-17 2018 Connecticut Judge's Cup Kinetic Kids LLC 5 5 11 yrs. 8.050 51T 6.700 47T 8.100 44 7.800 56T 30.650 55T
2018-11-10 2018 Turkey Tumble Kinetic Kids LLC 3 5 Older 8.200 7 6.700 4 9.200 1 8.050 6T 32.150 6
2018-02-03 Level 4 & 5 States Kinetic Kids LLC 3 4 10 B 7.950 52 7.200 53 8.750 40T 7.300 59 31.200 55
2018-01-19 Kinetic Kids Invitational Kinetic Kids LLC 2 4 Jr C 8.850 5T 8.200 7 8.900 7T 8.300 11 34.250 9
2018-01-12 DGS Invitational Kinetic Kids LLC 2B 4 10 yrs. 8.300 17 8.100 10 8.650 5 7.850 13T 32.900 12
2017-11-30 Rhode Island Invitational Kinetic Kids LLC SF2 4 Senior 8.125 11 7.750 10 8.775 11 8.225 13 32.875 11
2017-11-10 2017 Phs Turkey Tumble Kinetic Kids LLC 1 4 Sr A 7.550 11 7.050 11 8.250 8 8.350 6T 31.200 10
2017-03-25 2017 Connecticut Level 3 State Cup Kinetic Kids LLC 8 3 N/A 9.000 35T 9.000 6T 8.100 47T 8.850 25T 34.950 26
2017-02-23 2017 February Flip Invitational Kinetic Kids LLC 6 3 9 Yrs 9.000 9T 9.325 9 9.025 9 8.950 8 36.300 10
2017-01-13 Northeast Invitational Kinetic Kids LLC 9 3 9 yrs. 8.650 17 8.750 8 9.350 4 8.500 12T 35.250 10
2016-12-02 Rhode Island Invitational Kinetic Kids LLC WS4 3 Junior 8.600 10 7.450 12 7.800 10 8.450 7T 32.300 11
2016-11-05 2016 Connecticut Judges Cup Kinetic Kids LLC 2 AllLevels AllAges 8.550 36T 8.200 29 8.350 26T 8.550 22T 33.650 26
Get your scores on
a t-shirt, pin, or hoodie

www.lazysuits.com